Tiempo atmosférico en la estación meteorológica de Salobreña, Granada (20 m.)



Fecha
DESCASC
Temp. máxima en grados centígrados (hora)
DESCASC
Temp. mínima en grados centígrados (hora)
DESCASC
Temp. media en grados centígrados
DESCASC
Racha de viento máxima en m/sg (hora)
DESCASC
Velocidad máxima media en intervalos de 10 minutos(hora)
DESCASC
Precipitaciones diarias en mm
DESCASC
Precipitaciones de 00:00 a 06:00 en mm
DESCASC
Precipitaciones de 06:00 a 12:00 en mm
DESCASC
Precipitaciones de 12:00 a 18:00 en mm
DESCASC
Precipitaciones de 18:00 a 24:00 en mm
DESCASC
08-12-2019 17.7 (14:40) 8.4 (08:30) 13.1 7.78 (13:20) 4.44 (13:30) 0 0 0 0 0
07-12-2019 19.7 (11:30) 10.8 (23:50) 15.3 8.61 (14:40) 5 (04:40) 0 0 0 0 0
06-12-2019 20.7 (13:10) 9.5 (02:50) 15.1 8.61 (09:20) 4.72 (10:20) 0 0 0 0 0
05-12-2019 18.2 (14:50) 8.3 (00:00) 13.3 9.17 (05:50) 5.28 (05:00) 0 0 0 0 0
04-12-2019 18.3 (11:00) 7.9 (00:00) 13.1 11.94 (16:50) 6.39 (13:40) 0 0 0 0 0
03-12-2019 16.3 (15:20) 9.9 (00:00) 13.1 8.89 (09:20) 5.28 (09:20) 5.8 1.6 3.8 0.2 0.2
02-12-2019 17.7 (14:50) 10.9 (00:00) 14.3 10.28 (17:20) 5 (16:20) 2.4 1.2 1 0 0.2
01-12-2019 17.2 (11:40) 8.8 (00:00) 13 11.39 (15:40) 6.11 (13:10) 4.2 0 0 0 4.2
30-11-2019 19.8 (12:20) 8.3 (00:00) 14 3.89 (15:50) 2.78 (15:40) 0 0 0 0 0
29-11-2019 18.9 (15:50) 9.4 (00:00) 14.1 6.94 (01:50) 4.17 (01:50) 0 0 0 0 0
28-11-2019 19.5 (11:10) 11 (00:00) 15.3 9.17 (09:20) 5 (09:10) 0 0 0 0 0
27-11-2019 21 (13:40) 11.9 (00:00) 16.4 10.83 (11:00) 5.83 (14:50) 0 0 0 0 0
26-11-2019 21.8 (13:10) 11.5 (00:00) 16.6 8.33 (05:30) 4.72 (05:30) 0 0 0 0 0
25-11-2019 21.4 (12:50) 10 (00:00) 15.7 13.89 (08:40) 8.33 (08:40) 0 0 0 0 0
24-11-2019 19.7 (13:40) 11.3 (00:00) 15.5 16.11 (10:10) 9.17 (11:00) 0 0 0 0 0
23-11-2019 18.8 (13:40) 10.4 (00:00) 14.6 15.28 (17:50) 8.33 (15:30) 0 0 0 0 0
22-11-2019 16.7 (21:10) 13.3 (00:00) 15 11.67 (20:30) 6.11 (06:00) 87.6 14.6 36.8 27.6 8.6
21-11-2019 15.3 (15:30) 8.7 (00:00) 12 3.06 (01:10) 2.22 (01:10) 26.8 0.2 1.4 5.8 19.4
20-11-2019 17.2 (11:20) 8 (00:00) 12.6 8.33 (14:10) 3.89 (13:50) 1.2 0 0 0.4 0.8
19-11-2019 17.1 (11:10) 9.3 (00:00) 13.2 8.89 (05:00) 6.11 (05:00) 0 0 0 0 0
18-11-2019 21.2 (14:20) 11.1 (00:00) 16.2 13.33 (10:50) 7.22 (13:00) 0.2 0 0.2 0 0
17-11-2019 16.8 (14:10) 7.3 (00:00) 12 12.78 (13:50) 6.11 (14:00) 0 0 0 0 0
16-11-2019 17.5 (16:40) 8.8 (00:00) 13.2 13.61 (19:50) 7.5 (19:50) 0 0 0 0 0
15-11-2019 16.5 (13:10) 10.5 (00:00) 13.5 16.94 (20:30) 8.33 (20:40) 0 0 0 0 0
14-11-2019 18.4 (01:20) 8.4 (00:00) 13.4 14.72 (16:00) 8.33 (14:20) 0 0 0 0 0
13-11-2019 22.5 (16:40) 15.2 (00:00) 18.8 14.44 (07:00) 8.33 (04:40) 0 0 0 0 0
12-11-2019 22 (16:20) 13.7 (00:00) 17.8 13.89 (22:00) 7.78 (22:30) 0 0 0 0 0
11-11-2019 20.6 (13:50) 11.7 (08:00) 16.2 15.83 (18:50) 9.72 (19:20) 0 0 0 0 0

Gráficas

Temp. máximas Temp. mínimas Temp. medias Precipitaciones Rachas de viento máximas Velocidades máximas media en intervalos de 10 minutos

Datos horarios

Fecha y hora oficial Temperatura (ºC) Velocidad del viento (km/h) Dirección del viento Racha (km/h) Dirección de racha Precipitación (mm) Presión (hPa) Tendencia (hPa) Humedad (%)
2019-12-10 23:00:00 9.3 7 Norte 11 Norte 0 -- -- 92
2019-12-10 22:00:00 9.5 4 Norte 10 Norte 0 -- -- 91
2019-12-10 21:00:00 10.2 9 Norte 12 Norte 0 -- -- 91
2019-12-10 20:00:00 10.8 6 Norte 12 Nordeste 0 -- -- 91
2019-12-10 19:00:00 12.3 8 Norte 11 Norte 0 -- -- 90
2019-12-10 18:00:00 16 3 Sudoeste 11 Sudoeste 0 -- -- 81
2019-12-10 17:00:00 17.6 4 Sur 12 Sudoeste 0 -- -- 69
2019-12-10 16:00:00 18.8 7 Sudoeste 12 Sudoeste 0 -- -- 61
2019-12-10 15:00:00 19 4 Sudoeste 18 Oeste 0 -- -- 63
2019-12-10 14:00:00 18.3 10 Sudoeste 18 Oeste 0 -- -- 77
2019-12-10 13:00:00 18.6 11 Oeste 20 Oeste 0 -- -- 57
2019-12-10 12:00:00 20.9 4 Sudeste 15 Nordeste 0 -- -- 29
2019-12-10 11:00:00 18.7 9 Nordeste 24 Nordeste 0 -- -- 45
2019-12-10 10:00:00 15.8 15 Nordeste 25 Nordeste 0 -- -- 47
2019-12-10 09:00:00 11.2 14 Este 22 Este 0 -- -- 62
2019-12-10 08:00:00 8.1 7 Nordeste 13 Nordeste 0 -- -- 82
2019-12-10 07:00:00 10.2 4 Nordeste 15 Este 0 -- -- 73
2019-12-10 06:00:00 10.3 2 Nordeste 18 Sudeste 0 -- -- 75
2019-12-10 05:00:00 14.2 11 Este 24 Nordeste 0 -- -- 57
2019-12-10 04:00:00 12.9 8 Nordeste 16 Nordeste 0 -- -- 66
2019-12-10 03:00:00 15 10 Norte 19 Nordeste 0 -- -- 61
2019-12-10 02:00:00 15.6 10 Nordeste 21 Nordeste 0 -- -- 63
2019-12-10 01:00:00 15.4 9 Nordeste 15 Norte 0 -- -- 69
2019-12-10 00:00:00 16 8 Nordeste 19 Norte 0 -- -- 69
2019-12-09 23:00:00 15.2 8 Norte 17 Nordeste 0 -- -- 75
2019-12-09 22:00:00 13.2 9 Norte 14 Norte 0 -- -- 86
2019-12-09 21:00:00 12.1 4 Norte 9 Nordeste 0 -- -- 93
2019-12-09 20:00:00 12.4 3 Noroeste 9 Norte 0 -- -- 89
2019-12-09 19:00:00 14.3 3 Norte 10 Sudoeste 0 -- -- 87
2019-12-09 18:00:00 17.3 5 Sudoeste 15 Sudoeste 0 -- -- 80
2019-12-09 17:00:00 20.3 0 Calma 9 Sudoeste 0 -- -- 63
2019-12-09 16:00:00 20.5 5 Sudoeste 11 Sudoeste 0 -- -- 56
2019-12-09 15:00:00 20.1 0 Calma 9 Sur 0 -- -- 65
2019-12-09 14:00:00 19.7 3 Oeste 15 Sudoeste 0 -- -- 67
2019-12-09 13:00:00 20.3 10 Sur 21 Este 0 -- -- 63
2019-12-09 12:00:00 21.1 13 Nordeste 29 Este 0 -- -- 55
2019-12-09 11:00:00 19.3 17 Nordeste 35 Este 0 -- -- 59
2019-12-09 10:00:00 17.6 19 Nordeste 33 Nordeste 0 -- -- 63
2019-12-09 09:00:00 15.3 15 Nordeste 31 Nordeste 0 -- -- 69
2019-12-09 08:00:00 14.3 6 Nordeste 35 Nordeste 0 -- -- 69
2019-12-09 07:00:00 15.1 18 Nordeste 32 Nordeste 0 -- -- 66
2019-12-09 06:00:00 15.5 19 Nordeste 37 Nordeste 0 -- -- 65
2019-12-09 05:00:00 15.9 14 Nordeste 35 Nordeste 0 -- -- 64
2019-12-09 04:00:00 16.2 18 Nordeste 30 Este 0 -- -- 62
2019-12-09 03:00:00 16.5 10 Nordeste 31 Este 0 -- -- 62
2019-12-09 02:00:00 16.1 3 Nordeste 32 Norte 0 -- -- 65
2019-12-09 01:00:00 13.4 14 Nordeste 26 Nordeste 0 -- -- 77
2019-12-09 00:00:00 12.5 2 Nordeste 12 Nordeste 0 -- -- 86
2019-12-08 23:00:00 13.7 3 Este 14 Nordeste 0 -- -- 89
2019-12-08 22:00:00 12.8 5 Noroeste 12 Norte 0 -- -- 96
2019-12-08 21:00:00 12.6 3 Nordeste 8 Norte 0 -- -- 96
2019-12-08 20:00:00 12.8 6 Norte 9 Norte 0 -- -- 95
2019-12-08 19:00:00 13.3 3 Norte 8 Norte 0 -- -- 92
2019-12-08 18:00:00 15.2 3 Sudeste 12 Oeste 0 -- -- 86
2019-12-08 17:00:00 16.8 8 Sudoeste 23 Sudoeste 0 -- -- 82
2019-12-08 16:00:00 17.1 11 Sudoeste 22 Sudoeste 0 -- -- 82
2019-12-08 15:00:00 17.7 12 Sudoeste 25 Oeste 0 -- -- 76
2019-12-08 14:00:00 17.4 12 Oeste 28 Oeste 0 -- -- 78
2019-12-08 13:00:00 17.2 12 Oeste 24 Oeste 0 -- -- 78
2019-12-08 12:00:00 16.6 12 Oeste 22 Oeste 0 -- -- 79
2019-12-08 11:00:00 15.8 10 Oeste 20 Oeste 0 -- -- 82
2019-12-08 10:00:00 13.1 3 Oeste 8 Norte 0 -- -- 95
2019-12-08 09:00:00 9.1 3 Norte 10 Nordeste 0 -- -- 98
2019-12-08 08:00:00 8.6 6 Norte 13 Nordeste 0 -- -- 97
2019-12-08 07:00:00 8.8 5 Nordeste 10 Nordeste 0 -- -- 97
2019-12-08 06:00:00 9 6 Norte 12 Nordeste 0 -- -- 96
2019-12-08 05:00:00 9 7 Norte 11 Nordeste 0 -- -- 97
2019-12-08 04:00:00 9.7 7 Nordeste 11 Norte 0 -- -- 96
2019-12-08 03:00:00 10.2 8 Nordeste 12 Nordeste 0 -- -- 96
2019-12-08 02:00:00 10 5 Nordeste 11 Nordeste 0 -- -- 95
2019-12-08 01:00:00 10.6 7 Norte 11 Nordeste 0 -- -- 95
2019-12-08 00:00:00 10.8 8 Nordeste 12 Norte 0 -- -- 95
2019-12-07 23:00:00 11.1 7 Norte 9 Norte 0 -- -- 94
2019-12-07 22:00:00 11.4 7 Norte 9 Norte 0 -- -- 93
2019-12-07 21:00:00 12.9 4 Norte 7 Oeste 0 -- -- 88
2019-12-07 20:00:00 15.3 5 Noroeste 13 Noroeste 0 -- -- 85
2019-12-07 19:00:00 15.9 8 Oeste 19 Sudoeste 0 -- -- 84
2019-12-07 18:00:00 16 8 Oeste 20 Sudoeste 0 -- -- 83
2019-12-07 17:00:00 16.4 9 Sudoeste 25 Sudoeste 0 -- -- 79
2019-12-07 16:00:00 16.8 14 Sudoeste 29 Sudoeste 0 -- -- 81
2019-12-07 15:00:00 17.6 11 Oeste 31 Noroeste 0 -- -- 77
2019-12-07 14:00:00 18.2 14 Oeste 31 Oeste 0 -- -- 74
2019-12-07 13:00:00 18.2 11 Sudoeste 22 Sudoeste 0 -- -- 78
2019-12-07 12:00:00 18.8 13 Sur 18 Sudoeste 0 -- -- 68
2019-12-07 11:00:00 18.7 6 Este 17 Nordeste 0 -- -- 59
2019-12-07 10:00:00 16.1 7 Nordeste 12 Norte 0 -- -- 68
2019-12-07 09:00:00 12.6 9 Norte 14 Nordeste 0 -- -- 77
2019-12-07 08:00:00 12.8 8 Norte 19 Nordeste 0 -- -- 75
2019-12-07 07:00:00 14.5 14 Nordeste 24 Nordeste 0 -- -- 67
2019-12-07 06:00:00 15.2 16 Nordeste 24 Nordeste 0 -- -- 65
2019-12-07 05:00:00 15.1 10 Nordeste 29 Este 0 -- -- 67
2019-12-07 04:00:00 14.2 13 Nordeste 23 Nordeste 0 -- -- 72
2019-12-07 03:00:00 12.8 6 Norte 10 Norte 0 -- -- 89
2019-12-07 02:00:00 12.7 3 Nordeste 8 Nordeste 0 -- -- 94
2019-12-07 01:00:00 12.9 6 Nordeste 8 Norte 0 -- -- 94
2019-12-07 00:00:00 12.8 7 Norte 9 Norte 0 -- -- 95
2019-12-06 23:00:00 12.9 4 Norte 7 Oeste 0 -- -- 93
2019-12-06 22:00:00 14 0 Calma 6 Nordeste 0 -- -- 91
2019-12-06 21:00:00 14.5 4 Norte 8 Norte 0 -- -- 89
2019-12-06 20:00:00 15 4 Nordeste 6 Sur 0 -- -- 86
2019-12-06 19:00:00 16.3 5 Sudeste 19 Sudeste 0 -- -- 77
2019-12-06 18:00:00 17 12 Sudeste 30 Sudeste 0 -- -- 74
2019-12-06 17:00:00 18.5 14 Sur 26 Sudeste 0 -- -- 69
2019-12-06 16:00:00 19.4 11 Sudeste 27 Sur 0 -- -- 65
2019-12-06 15:00:00 20.3 12 Sudeste 24 Sudeste 0 -- -- 58
2019-12-06 14:00:00 20.3 9 Oeste 18 Oeste 0 -- -- 57
2019-12-06 13:00:00 20.6 5 Oeste 13 Oeste 0 -- -- 52
2019-12-06 12:00:00 18.8 7 Oeste 20 Oeste 0 -- -- 59
2019-12-06 11:00:00 19.3 8 Este 30 Este 0 -- -- 53
2019-12-06 10:00:00 16.6 14 Nordeste 31 Nordeste 0 -- -- 59
2019-12-06 09:00:00 13.5 13 Nordeste 27 Nordeste 0 -- -- 69
2019-12-06 08:00:00 12.1 9 Nordeste 18 Nordeste 0 -- -- 74
2019-12-06 07:00:00 11.4 3 Norte 18 Nordeste 0 -- -- 79
2019-12-06 06:00:00 13.6 8 Nordeste 20 Este 0 -- -- 68
2019-12-06 05:00:00 12.5 7 Nordeste 19 Nordeste 0 -- -- 75
2019-12-06 04:00:00 11.6 9 Este 17 Nordeste 0 -- -- 86
2019-12-06 03:00:00 9.5 2 Norte 6 Norte 0 -- -- 95
2019-12-06 02:00:00 9.7 3 Sur 8 Norte 0 -- -- 95
2019-12-06 01:00:00 10.4 4 Norte 8 Norte 0 -- -- 94
2019-12-06 00:00:00 10.7 5 Noroeste 8 Noroeste 0 -- -- 95
2019-12-05 23:00:00 10.2 2 Norte 9 Norte 0 -- -- 94
2019-12-05 22:00:00 10.8 4 Norte 13 Norte 0 -- -- 92
2019-12-05 21:00:00 11.4 10 Nordeste 14 Nordeste 0 -- -- 93
2019-12-05 20:00:00 11.7 5 Nordeste 7 Nordeste 0 -- -- 89
2019-12-05 19:00:00 14.1 3 Norte 16 Sudeste 0 -- -- 83
2019-12-05 18:00:00 15.7 10 Sudeste 24 Sudeste 0 -- -- 77
2019-12-05 17:00:00 17 8 Sudeste 26 Sur 0 -- -- 71
2019-12-05 16:00:00 17 14 Sudeste 33 Sudeste 0 -- -- 70
2019-12-05 15:00:00 18.1 17 Sudeste 32 Sudeste 0 -- -- 68
2019-12-05 14:00:00 16.7 13 Sudeste 31 Sur 0 -- -- 72
2019-12-05 13:00:00 17.5 17 Sur 27 Sudeste 0 -- -- 70
2019-12-05 12:00:00 16.4 10 Sudeste 21 Sur 0 -- -- 74
2019-12-05 11:00:00 16.4 6 Este 19 Nordeste 0 -- -- 62
2019-12-05 10:00:00 13.2 9 Nordeste 20 Nordeste 0 -- -- 71
2019-12-05 09:00:00 12 15 Nordeste 28 Nordeste 0 -- -- 72
2019-12-05 08:00:00 11.4 7 Nordeste 23 Este 0 -- -- 76
2019-12-05 07:00:00 11.8 15 Nordeste 30 Nordeste 0 -- -- 73
2019-12-05 06:00:00 11.9 13 Nordeste 33 Nordeste 0 -- -- 73
2019-12-05 05:00:00 12.2 19 Nordeste 31 Nordeste 0 -- -- 73
2019-12-05 04:00:00 12.1 14 Nordeste 24 Nordeste 0 -- -- 75
2019-12-05 03:00:00 10.6 9 Nordeste 15 Nordeste 0 -- -- 85
2019-12-05 02:00:00 8.6 7 Norte 10 Nordeste 0 -- -- 93
2019-12-05 01:00:00 8.9 5 Nordeste 10 Norte 0 -- -- 89
2019-12-05 00:00:00 9.8 6 Norte 12 Nordeste 0 -- -- 87
2019-12-04 23:00:00 9.8 8 Nordeste 14 Nordeste 0 -- -- 90
2019-12-04 22:00:00 10.6 5 Nordeste 14 Norte 0 -- -- 83
2019-12-04 21:00:00 10.6 6 Norte 10 Este 0 -- -- 86
2019-12-04 20:00:00 12 5 Sudeste 12 Oeste 0 -- -- 83
2019-12-04 19:00:00 14.7 7 Oeste 32 Oeste 0 -- -- 77
2019-12-04 18:00:00 15.5 16 Oeste 35 Oeste 0 -- -- 74
2019-12-04 17:00:00 16.5 19 Oeste 43 Oeste 0 -- -- 72
2019-12-04 16:00:00 17.7 16 Oeste 37 Oeste 0 -- -- 70
2019-12-04 15:00:00 18 19 Oeste 38 Oeste 0 -- -- 67
2019-12-04 14:00:00 16.9 20 Oeste 41 Oeste 0 -- -- 73
2019-12-04 13:00:00 18.2 16 Oeste 32 Oeste 0 -- -- 66
2019-12-04 12:00:00 18.2 14 Oeste 24 Oeste 0 -- -- 64
2019-12-04 11:00:00 18.3 12 Noroeste 22 Noroeste 0 -- -- 55
2019-12-04 10:00:00 16.6 9 Oeste 30 Norte 0 -- -- 65
2019-12-04 09:00:00 15.3 7 Sudoeste 28 Norte 0 -- -- 65
2019-12-04 08:00:00 12.4 8 Norte 24 Norte 0 -- -- 77
2019-12-04 07:00:00 7.9 3 Norte 9 Norte 0 -- -- 95
2019-12-04 06:00:00 8.1 4 Norte 12 Nordeste 0 -- -- 94
2019-12-04 05:00:00 8.2 6 Nordeste 12 Nordeste 0 -- -- 94
2019-12-04 04:00:00 8.7 7 Nordeste 13 Nordeste 0 -- -- 93
2019-12-04 03:00:00 9 8 Norte 11 Norte 0 -- -- 92
2019-12-04 02:00:00 9.7 9 Nordeste 14 Nordeste 0 -- -- 91
2019-12-04 01:00:00 9.8 8 Norte 14 Norte 0 -- -- 92
2019-12-04 00:00:00 10 7 Nordeste 10 Nordeste 0 -- -- 96
2019-12-03 23:00:00 10.9 8 Nordeste 13 Nordeste 0 -- -- 96
2019-12-03 22:00:00 10.9 6 Norte 10 Norte 0.2 -- -- 96
2019-12-03 21:00:00 12.1 5 Norte 7 Noroeste 0 -- -- 94
2019-12-03 20:00:00 13.5 4 Noroeste 13 Oeste 0 -- -- 92
2019-12-03 19:00:00 14.2 3 Oeste 7 Oeste 0 -- -- 92
2019-12-03 18:00:00 15.1 3 Noroeste 11 Sudoeste 0 -- -- 87
2019-12-03 17:00:00 15.5 4 Sur 14 Oeste 0 -- -- 84
2019-12-03 16:00:00 16.2 4 Oeste 17 Oeste 0 -- -- 78
2019-12-03 15:00:00 16 5 Oeste 16 Oeste 0 -- -- 81
2019-12-03 14:00:00 15.2 9 Oeste 17 Oeste 0.2 -- -- 83
2019-12-03 13:00:00 15.1 7 Noroeste 21 Nordeste 0 -- -- 77
2019-12-03 12:00:00 13.8 12 Nordeste 24 Nordeste 0 -- -- 85
2019-12-03 11:00:00 12.7 9 Nordeste 22 Este 1 -- -- 91
2019-12-03 10:00:00 13.1 5 Nordeste 32 Nordeste 2.8 -- -- 88
2019-12-03 09:00:00 14 11 Este 26 Nordeste 0 -- -- 75
2019-12-03 08:00:00 13.3 12 Este 23 Nordeste 0 -- -- 81
2019-12-03 07:00:00 12.8 5 Nordeste 27 Norte 0 -- -- 88
2019-12-03 06:00:00 12.7 4 Oeste 12 Oeste 0.2 -- -- 94
2019-12-03 05:00:00 12.6 3 Sur 8 Oeste 0 -- -- 97
2019-12-03 04:00:00 12.6 0 Calma 6 Noroeste 0.2 -- -- 96
2019-12-03 03:00:00 12.9 4 Norte 11 Noroeste 0 -- -- 96
2019-12-03 02:00:00 12.8 3 Sudoeste 8 Sur 0.2 -- -- 96
2019-12-03 01:00:00 13.1 4 Norte 10 Este 1 -- -- 93
2019-12-03 00:00:00 13.7 6 Sudeste 22 Sudeste 0.2 -- -- 89
2019-12-02 23:00:00 13 4 Nordeste 9 Nordeste 0 -- -- 94
2019-12-02 22:00:00 13.1 3 Nordeste 8 Nordeste 0 -- -- 93
2019-12-02 21:00:00 13 5 Este 14 Nordeste 0 -- -- 93
2019-12-02 20:00:00 12.4 5 Nordeste 7 Nordeste 0 -- -- 93
2019-12-02 19:00:00 13.3 4 Norte 15 Sudeste 0 -- -- 87
2019-12-02 18:00:00 15 13 Sudeste 37 Sudeste 0 -- -- 83
2019-12-02 17:00:00 16.3 18 Sudeste 32 Sudeste 0 -- -- 79
2019-12-02 16:00:00 17.4 14 Sudeste 29 Sudeste 0 -- -- 74
2019-12-02 15:00:00 17.6 9 Sudeste 24 Sudeste 0 -- -- 69
2019-12-02 14:00:00 16 14 Sudeste 31 Sudeste 0 -- -- 80
2019-12-02 13:00:00 17 16 Sur 24 Sur 0 -- -- 78
2019-12-02 12:00:00 15.7 10 Sur 16 Sudeste 0 -- -- 81
2019-12-02 11:00:00 15.8 0 Calma 14 Nordeste 0 -- -- 75
2019-12-02 10:00:00 13.6 6 Nordeste 15 Nordeste 0 -- -- 92
2019-12-02 09:00:00 11.5 8 Nordeste 13 Nordeste 0 -- -- 96
2019-12-02 08:00:00 11.3 9 Nordeste 14 Nordeste 0 -- -- 97
2019-12-02 07:00:00 11.8 6 Nordeste 13 Nordeste 1 -- -- 97
2019-12-02 06:00:00 11.9 6 Nordeste 10 Nordeste 1 -- -- 98
2019-12-02 05:00:00 11.5 6 Nordeste 9 Nordeste 0 -- -- 98
2019-12-02 04:00:00 11.2 4 Norte 8 Nordeste 0 -- -- 97
2019-12-02 03:00:00 12.7 0 Calma 7 Nordeste 0 -- -- 97
2019-12-02 02:00:00 12.8 4 Nordeste 6 Nordeste 0 -- -- 97
2019-12-02 01:00:00 12.7 4 Nordeste 8 Norte 0.2 -- -- 96
2019-12-02 00:00:00 13.4 4 Norte 6 Norte 0.2 -- -- 96
2019-12-01 23:00:00 13.9 0 Calma 11 Noroeste 3.4 -- -- 94
2019-12-01 22:00:00 14.3 0 Calma 9 Sudoeste 0 -- -- 90
2019-12-01 21:00:00 14.9 2 Nordeste 22 Sudoeste 0.6 -- -- 87
2019-12-01 20:00:00 15.7 12 Oeste 27 Oeste 0 -- -- 78
2019-12-01 19:00:00 15.7 11 Oeste 28 Oeste 0 -- -- 76
2019-12-01 18:00:00 15.9 11 Oeste 24 Oeste 0 -- -- 73
2019-12-01 17:00:00 17 14 Oeste 38 Oeste 0 -- -- 63
2019-12-01 16:00:00 16.7 17 Oeste 41 Oeste 0 -- -- 75
2019-12-01 15:00:00 16.6 18 Oeste 39 Oeste 0 -- -- 82
2019-12-01 14:00:00 16.5 21 Oeste 41 Noroeste 0 -- -- 83
2019-12-01 13:00:00 16.8 21 Oeste 39 Oeste 0 -- -- 79
2019-12-01 12:00:00 17.1 15 Oeste 33 Oeste 0 -- -- 72
2019-12-01 11:00:00 16.6 12 Oeste 24 Oeste 0 -- -- 69
2019-12-01 10:00:00 14.3 4 Sudoeste 15 Oeste 0 -- -- 93
2019-12-01 09:00:00 12.8 3 Oeste 8 Oeste 0 -- -- 96
2019-12-01 08:00:00 12.1 4 Norte 8 Noroeste 0 -- -- 96
2019-12-01 07:00:00 11.7 4 Noroeste 10 Oeste 0 -- -- 97
2019-12-01 06:00:00 10.3 5 Norte 11 Norte 0 -- -- 97
2019-12-01 05:00:00 9.9 4 Norte 20 Noroeste 0 -- -- 96
2019-12-01 04:00:00 8.9 6 Nordeste 9 Norte 0 -- -- 97
2019-12-01 03:00:00 9.1 3 Noroeste 9 Nordeste 0 -- -- 96
2019-12-01 02:00:00 9.5 5 Noroeste 10 Nordeste 0 -- -- 96
2019-12-01 01:00:00 9.6 3 Noroeste 10 Norte 0 -- -- 96
2019-12-01 00:00:00 10.7 3 Norte 8 Noroeste 0 -- -- 98
2019-11-30 23:00:00 10.1 4 Nordeste 10 Norte 0 -- -- 96
2019-11-30 22:00:00 10.2 6 Norte 10 Norte 0 -- -- 96
2019-11-30 21:00:00 10.6 6 Norte 9 Norte 0 -- -- 95
2019-11-30 20:00:00 11.2 5 Norte 10 Norte 0 -- -- 93
2019-11-30 19:00:00 12.6 5 Norte 9 Norte 0 -- -- 88
2019-11-30 18:00:00 15.7 0 Calma 8 Sudoeste 0 -- -- 82
2019-11-30 17:00:00 16.9 6 Sudoeste 13 Sudoeste 0 -- -- 76
2019-11-30 16:00:00 17.9 8 Sudoeste 14 Oeste 0 -- -- 79
2019-11-30 15:00:00 18.8 5 Sudoeste 11 Sudoeste 0 -- -- 71
2019-11-30 14:00:00 18.6 8 Sudoeste 13 Sudoeste 0 -- -- 71
2019-11-30 13:00:00 18.8 8 Sudoeste 13 Sudoeste 0 -- -- 66
2019-11-30 12:00:00 19.3 4 Sur 10 Sur 0 -- -- 64
2019-11-30 11:00:00 18.1 5 Sur 10 Nordeste 0 -- -- 68
2019-11-30 10:00:00 14.7 6 Nordeste 12 Nordeste 0 -- -- 80
2019-11-30 09:00:00 10.1 7 Nordeste 10 Nordeste 0 -- -- 95
2019-11-30 08:00:00 8.5 5 Norte 10 Norte 0 -- -- 96
2019-11-30 07:00:00 8.6 6 Norte 8 Norte 0 -- -- 95
2019-11-30 06:00:00 9.1 5 Nordeste 10 Nordeste 0 -- -- 95
2019-11-30 05:00:00 9.7 6 Nordeste 11 Nordeste 0 -- -- 94
2019-11-30 04:00:00 9.6 4 Norte 10 Nordeste 0 -- -- 93
2019-11-30 03:00:00 10.1 5 Norte 12 Nordeste 0 -- -- 93
2019-11-30 02:00:00 10.1 6 Nordeste 9 Norte 0 -- -- 95
2019-11-30 01:00:00 10.4 7 Norte 9 Norte 0 -- -- 95
2019-11-30 00:00:00 10.6 7 Norte 9 Norte 0 -- -- 95
2019-11-29 23:00:00 10.9 6 Norte 9 Norte 0 -- -- 95
2019-11-29 22:00:00 11.1 5 Norte 11 Nordeste 0 -- -- 95
2019-11-29 21:00:00 11.4 7 Norte 12 Nordeste 0 -- -- 94
2019-11-29 20:00:00 11.7 6 Norte 9 Norte 0 -- -- 93
2019-11-29 19:00:00 13 4 Norte 7 Norte 0 -- -- 87
2019-11-29 18:00:00 16.4 3 Sudoeste 6 Sur 0 -- -- 80
2019-11-29 17:00:00 18.2 2 Sur 9 Sur 0 -- -- 74
2019-11-29 16:00:00 18.8 4 Sudoeste 10 Sudoeste 0 -- -- 71
2019-11-29 15:00:00 18.6 5 Sudoeste 10 Sur 0 -- -- 76
2019-11-29 14:00:00 18.6 7 Sudoeste 12 Sur 0 -- -- 76
2019-11-29 13:00:00 18.4 7 Sudoeste 13 Sudoeste 0 -- -- 70
2019-11-29 12:00:00 18 6 Sudoeste 11 Sudoeste 0 -- -- 75
2019-11-29 11:00:00 17.5 5 Sudoeste 9 Sudoeste 0 -- -- 77
2019-11-29 10:00:00 15.6 4 Sudoeste 8 Sudoeste 0 -- -- 81
2019-11-29 09:00:00 11 2 Noroeste 8 Nordeste 0 -- -- 94
2019-11-29 08:00:00 10 3 Norte 13 Este 0 -- -- 91
2019-11-29 07:00:00 10.3 0 Calma 12 Este 0 -- -- 89
2019-11-29 06:00:00 10.9 5 Nordeste 9 Este 0 -- -- 86
2019-11-29 05:00:00 13.7 4 Este 15 Nordeste 0 -- -- 77
2019-11-29 04:00:00 14.4 10 Nordeste 23 Nordeste 0 -- -- 72
2019-11-29 03:00:00 14.9 12 Nordeste 25 Nordeste 0 -- -- 71
2019-11-29 02:00:00 14.9 13 Nordeste 25 Nordeste 0 -- -- 71
2019-11-29 01:00:00 13 7 Norte 23 Nordeste 0 -- -- 78
2019-11-29 00:00:00 12.8 8 Norte 13 Nordeste 0 -- -- 81
2019-11-28 23:00:00 13.2 8 Norte 25 Nordeste 0 -- -- 78
2019-11-28 22:00:00 11.1 4 Norte 12 Norte 0 -- -- 91
2019-11-28 21:00:00 11.3 7 Norte 14 Norte 0 -- -- 91
2019-11-28 20:00:00 12 8 Norte 12 Norte 0 -- -- 90
2019-11-28 19:00:00 12.8 5 Norte 9 Nordeste 0 -- -- 87
2019-11-28 18:00:00 15.8 4 Nordeste 10 Noroeste 0 -- -- 81
2019-11-28 17:00:00 18.4 5 Oeste 19 Oeste 0 -- -- 67
2019-11-28 16:00:00 19.4 7 Sudoeste 15 Oeste 0 -- -- 53
2019-11-28 15:00:00 19.5 8 Oeste 15 Oeste 0 -- -- 60
2019-11-28 14:00:00 19 6 Sudoeste 15 Sudoeste 0 -- -- 67
2019-11-28 13:00:00 19.1 8 Sudoeste 15 Sudoeste 0 -- -- 63
2019-11-28 12:00:00 18.6 8 Sudoeste 17 Sudoeste 0 -- -- 64
2019-11-28 11:00:00 19.2 6 Noroeste 27 Nordeste 0 -- -- 60
2019-11-28 10:00:00 17.9 16 Nordeste 33 Nordeste 0 -- -- 61
2019-11-28 09:00:00 15.8 17 Nordeste 30 Nordeste 0 -- -- 68
2019-11-28 08:00:00 14.5 17 Nordeste 27 Norte 0 -- -- 72
2019-11-28 07:00:00 14.4 13 Nordeste 23 Nordeste 0 -- -- 74
2019-11-28 06:00:00 14.6 10 Nordeste 22 Norte 0 -- -- 71
2019-11-28 05:00:00 12.1 10 Norte 15 Norte 0 -- -- 85
2019-11-28 04:00:00 13.5 8 Norte 18 Nordeste 0 -- -- 77
2019-11-28 03:00:00 11 2 Nordeste 10 Norte 0 -- -- 86
2019-11-28 02:00:00 11.8 8 Norte 10 Norte 0 -- -- 84
2019-11-28 01:00:00 14.8 4 Oeste 17 Norte 0 -- -- 75
2019-11-28 00:00:00 15.3 12 Norte 21 Norte 0 -- -- 65
2019-11-27 23:00:00 13.9 8 Norte 16 Norte 0 -- -- 75
2019-11-27 22:00:00 15.3 8 Norte 22 Noroeste 0 -- -- 69
2019-11-27 21:00:00 16.7 9 Norte 19 Norte 0 -- -- 63
2019-11-27 20:00:00 16.9 11 Norte 24 Norte 0 -- -- 62
2019-11-27 19:00:00 18.4 18 Norte 37 Noroeste 0 -- -- 54
2019-11-27 18:00:00 19.3 18 Norte 35 Norte 0 -- -- 52
2019-11-27 17:00:00 20.8 16 Noroeste 31 Oeste 0 -- -- 49
2019-11-27 16:00:00 19.9 13 Oeste 35 Oeste 0 -- -- 68
2019-11-27 15:00:00 19.3 19 Oeste 39 Oeste 0 -- -- 72
2019-11-27 14:00:00 20.7 13 Oeste 31 Oeste 0 -- -- 65
2019-11-27 06:00:00 -- -- -- -- -- -- -- -- --
2019-11-27 05:00:00 -- -- -- -- -- -- -- -- --
2019-11-27 04:00:00 -- -- -- -- -- -- -- -- --
2019-11-27 03:00:00 -- -- -- -- -- -- -- -- --
2019-11-27 02:00:00 12.1 5 Norte 19 Noroeste 0 -- -- 94
2019-11-27 01:00:00 11.9 4 Norte 8 Norte 0 -- -- 96
2019-11-27 00:00:00 13 6 Noroeste 14 Oeste 0 -- -- 96
2019-11-26 23:00:00 11.8 3 Norte 9 Nordeste 0 -- -- 96
2019-11-26 22:00:00 11.7 4 Norte 7 Norte 0 -- -- 95
2019-11-26 21:00:00 12.7 4 Norte 8 Nordeste 0 -- -- 93
2019-11-26 20:00:00 13.6 4 Norte 6 Norte 0 -- -- 92
2019-11-26 19:00:00 15.3 3 Nordeste 7 Nordeste 0 -- -- 89
2019-11-26 18:00:00 17.4 0 Calma 10 Oeste 0 -- -- 85
2019-11-26 17:00:00 19.1 2 Noroeste 20 Oeste 0 -- -- 78
2019-11-26 16:00:00 19.7 12 Oeste 23 Oeste 0 -- -- 72
2019-11-26 15:00:00 20.1 4 Oeste 13 Sudoeste 0 -- -- 69
2019-11-26 14:00:00 20.3 8 Oeste 18 Oeste 0 -- -- 64
2019-11-26 13:00:00 21.7 10 Oeste 20 Oeste 0 -- -- 52
2019-11-26 12:00:00 19.7 12 Oeste 22 Oeste 0 -- -- 64
2019-11-26 11:00:00 20.7 5 Norte 21 Nordeste 0 -- -- 60
2019-11-26 10:00:00 19.1 9 Nordeste 26 Nordeste 0 -- -- 66
2019-11-26 09:00:00 14.9 4 Nordeste 13 Norte 0 -- -- 83
2019-11-26 08:00:00 14.7 11 Nordeste 18 Nordeste 0 -- -- 78
2019-11-26 07:00:00 15.5 12 Norte 23 Nordeste 0 -- -- 76
2019-11-26 06:00:00 16 9 Norte 30 Nordeste 0 -- -- 75
2019-11-26 05:00:00 14.4 10 Nordeste 22 Nordeste 0 -- -- 85
2019-11-26 04:00:00 13.2 3 Norte 14 Noroeste 0 -- -- 93
2019-11-26 03:00:00 12.3 3 Oeste 11 Norte 0 -- -- 94
2019-11-26 02:00:00 13.3 3 Este 9 Noroeste 0 -- -- 90
2019-11-26 01:00:00 16.7 5 Noroeste 15 Oeste 0 -- -- 82
2019-11-26 00:00:00 19.6 6 Norte 29 Norte 0 -- -- 62
2019-11-25 23:00:00 17.8 9 Oeste 22 Noroeste 0 -- -- 79
2019-11-25 22:00:00 16.6 8 Oeste 25 Oeste 0 -- -- 85
2019-11-25 21:00:00 16.2 8 Noroeste 20 Oeste 0 -- -- 86
2019-11-25 20:00:00 14.6 8 Nordeste 12 Nordeste 0 -- -- 89
2019-11-25 19:00:00 16.2 4 Oeste 10 Oeste 0 -- -- 84
2019-11-25 18:00:00 17.3 9 Oeste 26 Oeste 0 -- -- 76
2019-11-25 17:00:00 18.8 6 Oeste 32 Oeste 0 -- -- 68
2019-11-25 16:00:00 18.6 17 Oeste 37 Oeste 0 -- -- 71
2019-11-25 15:00:00 18.2 16 Oeste 31 Oeste 0 -- -- 73
2019-11-25 14:00:00 19.1 19 Oeste 33 Oeste 0 -- -- 68
2019-11-25 13:00:00 20.8 13 Oeste 30 Oeste 0 -- -- 62
2019-11-25 12:00:00 19.8 12 Sudoeste 21 Noroeste 0 -- -- 65
2019-11-25 11:00:00 18.6 9 Sudoeste 35 Noroeste 0 -- -- 68
2019-11-25 10:00:00 20.2 17 Noroeste 35 Norte 0 -- -- 55
2019-11-25 09:00:00 19 14 Norte 50 Norte 0 -- -- 58
2019-11-25 08:00:00 14.8 11 Norte 35 Nordeste 0 -- -- 75
2019-11-25 07:00:00 13 6 Sur 17 Norte 0 -- -- 76
2019-11-25 06:00:00 11.6 5 Este 16 Nordeste 0 -- -- 79
2019-11-25 05:00:00 10.4 3 Oeste 15 Nordeste 0 -- -- 83
2019-11-25 04:00:00 10.3 7 Norte 13 Noroeste 0 -- -- 83
2019-11-25 03:00:00 11.3 5 Noroeste 13 Norte 0 -- -- 81
2019-11-25 02:00:00 12.7 4 Nordeste 15 Nordeste 0 -- -- 67
2019-11-25 01:00:00 15.2 5 Norte 36 Norte 0 -- -- 52
2019-11-25 00:00:00 15.4 20 Norte 39 Norte 0 -- -- 48
2019-11-24 23:00:00 14.4 14 Nordeste 30 Nordeste 0 -- -- 52
2019-11-24 22:00:00 15 9 Nordeste 46 Norte 0 -- -- 49
2019-11-24 21:00:00 15.4 23 Norte 44 Norte 0 -- -- 47
2019-11-24 20:00:00 12.6 9 Nordeste 15 Norte 0 -- -- 64
2019-11-24 19:00:00 13.3 0 Calma 19 Noroeste 0 -- -- 64
2019-11-24 18:00:00 16.9 17 Noroeste 31 Noroeste 0 -- -- 36
2019-11-24 17:00:00 17.4 16 Oeste 38 Oeste 0 -- -- 48
2019-11-24 16:00:00 19.3 19 Noroeste 41 Noroeste 0 -- -- 37
2019-11-24 15:00:00 19.6 17 Noroeste 40 Noroeste 0 -- -- 28
2019-11-24 14:00:00 19.7 20 Norte 40 Norte 0 -- -- 27
2019-11-24 13:00:00 18.7 8 Este 37 Norte 0 -- -- 31
2019-11-24 12:00:00 19.2 22 Norte 55 Norte 0 -- -- 31
2019-11-24 11:00:00 17.4 33 Norte 58 Norte 0 -- -- 41
2019-11-24 10:00:00 16.4 22 Norte 45 Noroeste 0 -- -- 44
2019-11-24 09:00:00 14.7 13 Noroeste 39 Noroeste 0 -- -- 50
2019-11-24 08:00:00 13.4 19 Noroeste 35 Oeste 0 -- -- 54
2019-11-24 07:00:00 13.9 18 Oeste 30 Oeste 0 -- -- 51
2019-11-24 06:00:00 14.6 15 Noroeste 44 Noroeste 0 -- -- 47
2019-11-24 05:00:00 15 22 Norte 39 Norte 0 -- -- 44
2019-11-24 04:00:00 11.4 6 Este 28 Noroeste 0 -- -- 67
2019-11-24 03:00:00 12.6 4 Nordeste 18 Oeste 0 -- -- 59
2019-11-24 02:00:00 13.5 9 Noroeste 24 Noroeste 0 -- -- 56
2019-11-24 01:00:00 14.5 13 Oeste 28 Noroeste 0 -- -- 51
2019-11-24 00:00:00 14.6 12 Noroeste 33 Noroeste 0 -- -- 52
2019-11-23 23:00:00 14.9 13 Noroeste 33 Noroeste 0 -- -- 49
2019-11-23 22:00:00 14.6 12 Noroeste 32 Norte 0 -- -- 53
2019-11-23 21:00:00 15.4 11 Noroeste 42 Noroeste 0 -- -- 50
2019-11-23 20:00:00 15.6 17 Norte 49 Norte 0 -- -- 52
2019-11-23 19:00:00 16 24 Noroeste 46 Norte 0 -- -- 50
2019-11-23 18:00:00 16.5 30 Noroeste 55 Noroeste 0 -- -- 48
2019-11-23 17:00:00 17.4 19 Noroeste 41 Noroeste 0 -- -- 45
2019-11-23 16:00:00 17.7 23 Noroeste 49 Noroeste 0 -- -- 46
2019-11-23 15:00:00 18.3 29 Norte 50 Norte 0 -- -- 42
2019-11-23 14:00:00 18.7 22 Noroeste 46 Noroeste 0 -- -- 43
2019-11-23 13:00:00 18.4 20 Noroeste 44 Norte 0 -- -- 43
2019-11-23 12:00:00 17.8 24 Norte 42 Norte 0 -- -- 49
2019-11-23 11:00:00 17.2 25 Noroeste 48 Noroeste 0 -- -- 49
2019-11-23 10:00:00 16 23 Norte 41 Noroeste 0 -- -- 56
2019-11-23 09:00:00 14.8 17 Norte 50 Norte 0 -- -- 60
2019-11-23 08:00:00 14.5 21 Noroeste 50 Norte 0 -- -- 62
2019-11-23 07:00:00 15.7 19 Norte 55 Norte 0 -- -- 62
2019-11-23 06:00:00 16.5 21 Noroeste 50 Noroeste 0 -- -- 51
2019-11-23 05:00:00 14.5 8 Noroeste 32 Norte 0 -- -- 65
2019-11-23 04:00:00 10.5 6 Norte 10 Norte 0 -- -- 91
2019-11-23 03:00:00 13.1 5 Norte 34 Norte 0 -- -- 80
2019-11-23 02:00:00 14.7 14 Norte 36 Norte 0 -- -- 69
2019-11-23 01:00:00 14.3 11 Norte 31 Norte 0 -- -- 72
2019-11-23 00:00:00 14.4 17 Norte 30 Norte 0 -- -- 74
2019-11-22 23:00:00 15 8 Norte 16 Noroeste 0 -- -- 96
2019-11-22 22:00:00 16.6 8 Oeste 41 Oeste 4.4 -- -- 97
2019-11-22 21:00:00 16.5 17 Oeste 42 Oeste 1.6 -- -- 98
2019-11-22 20:00:00 16.1 12 Oeste 24 Sudoeste 0.4 -- -- 100
2019-11-22 19:00:00 14.3 4 Nordeste 7 Norte 2.2 -- -- 100
2019-11-22 18:00:00 14.1 4 Nordeste 7 Nordeste 0.6 -- -- 99
2019-11-22 17:00:00 14.1 5 Noroeste 10 Norte 8.4 -- -- 99
2019-11-22 16:00:00 14.1 3 Norte 5 Norte 8 -- -- 99
2019-11-22 15:00:00 14.3 3 Sudeste 5 Este 1.6 -- -- 99
2019-11-22 14:00:00 14.2 2 Sudeste 6 Sudeste 3.6 -- -- 99
2019-11-22 13:00:00 14.3 3 Sur 6 Sudeste 5.4 -- -- 99
2019-11-22 12:00:00 14.5 4 Sudeste 7 Sur 5.8 -- -- 99
2019-11-22 11:00:00 14.5 5 Sudoeste 7 Sur 4.4 -- -- 99
2019-11-22 10:00:00 14.2 3 Nordeste 6 Este 6.4 -- -- 99
2019-11-22 09:00:00 14.2 4 Sur 10 Sur 11 -- -- 98
2019-11-22 08:00:00 14.3 0 Calma 14 Oeste 4.4 -- -- 97
2019-11-22 07:00:00 14.4 8 Oeste 37 Noroeste 4.8 -- -- 95
2019-11-22 06:00:00 14.4 22 Noroeste 40 Noroeste 4.2 -- -- 98
2019-11-22 05:00:00 14.3 6 Noroeste 16 Oeste 3.8 -- -- 100
2019-11-22 04:00:00 14 0 Calma 4 Nordeste 3.4 -- -- 99
2019-11-22 03:00:00 13.9 3 Norte 4 Nordeste 2.8 -- -- 99
2019-11-22 02:00:00 13.8 0 Calma 4 Nordeste 0 -- -- 99
2019-11-22 01:00:00 13.9 4 Nordeste 6 Nordeste 0.4 -- -- 99
2019-11-22 00:00:00 13.8 0 Calma 5 Oeste 2.6 -- -- 99
2019-11-21 23:00:00 13.8 0 Calma 5 Nordeste 0.6 -- -- 98
2019-11-21 22:00:00 13.7 2 Norte 4 Norte 4.2 -- -- 98
2019-11-21 21:00:00 13.9 2 Nordeste 6 Noroeste 5.8 -- -- 98
2019-11-21 20:00:00 14 0 Calma 5 Este 4.4 -- -- 97
2019-11-21 19:00:00 14.3 0 Calma 8 Sudoeste 1.8 -- -- 96
2019-11-21 18:00:00 14.5 3 Sudoeste 4 Sudoeste 2.2 -- -- 94
2019-11-21 17:00:00 15 0 Calma 6 Sudoeste 0 -- -- 92
2019-11-21 16:00:00 15.2 6 Sudoeste 11 Sudoeste 0 -- -- 91
2019-11-21 15:00:00 15 0 Calma 8 Nordeste 0.8 -- -- 96
2019-11-21 14:00:00 14.5 4 Nordeste 8 Nordeste 0.4 -- -- 96
2019-11-21 13:00:00 13.4 3 Norte 7 Nordeste 2.4 -- -- 96
2019-11-21 12:00:00 13.4 2 Nordeste 7 Nordeste 0.8 -- -- 95
2019-11-21 11:00:00 12.8 2 Sudoeste 6 Sudoeste 0.6 -- -- 93
2019-11-21 10:00:00 12.3 0 Calma 8 Norte 0 -- -- 96
2019-11-21 09:00:00 11.3 5 Norte 10 Nordeste 0 -- -- 97
2019-11-21 08:00:00 -- -- -- -- -- -- -- -- --
2019-11-21 07:00:00 -- -- -- -- -- -- -- -- --
2019-11-21 06:00:00 -- -- -- -- -- -- -- -- --
2019-11-21 05:00:00 -- -- -- -- -- -- -- -- --
2019-11-21 04:00:00 -- -- -- -- -- -- -- -- --
2019-11-21 03:00:00 -- -- -- -- -- -- -- -- --
2019-11-21 02:00:00 -- -- -- -- -- -- -- -- --
2019-11-21 01:00:00 -- -- -- -- -- -- -- -- --
2019-11-21 00:00:00 -- -- -- -- -- -- -- -- --
2019-11-20 23:00:00 -- -- -- -- -- -- -- -- --
2019-11-20 22:00:00 -- -- -- -- -- -- -- -- --
2019-11-20 21:00:00 12.4 3 Norte 9 Sudoeste 0 -- -- 93
2019-11-20 20:00:00 13.3 8 Oeste 19 Noroeste 0.8 -- -- 88
2019-11-20 19:00:00 13.9 2 Sudoeste 9 Noroeste 0 -- -- 84
2019-11-20 18:00:00 14.1 6 Noroeste 14 Oeste 0 -- -- 77
2019-11-20 17:00:00 14.4 3 Oeste 11 Noroeste 0 -- -- 79
2019-11-20 16:00:00 13.3 5 Nordeste 11 Este 0.2 -- -- 89
2019-11-20 15:00:00 13.2 2 Oeste 30 Oeste 0.2 -- -- 88
2019-11-20 14:00:00 13.6 12 Oeste 27 Sudoeste 0 -- -- 83
2019-11-20 13:00:00 15.3 6 Sudoeste 14 Sudoeste 0 -- -- 60
2019-11-20 12:00:00 16.1 8 Sudoeste 15 Sudoeste 0 -- -- 53
2019-11-20 11:00:00 16.6 2 Sur 17 Nordeste 0 -- -- 42
2019-11-20 10:00:00 12.6 11 Nordeste 18 Este 0 -- -- 55
2019-11-20 09:00:00 9.6 9 Nordeste 17 Nordeste 0 -- -- 70
2019-11-20 08:00:00 8.7 11 Nordeste 17 Nordeste 0 -- -- 71
2019-11-20 07:00:00 8.1 9 Nordeste 14 Nordeste 0 -- -- 77
2019-11-20 06:00:00 8.6 7 Nordeste 13 Nordeste 0 -- -- 76
2019-11-20 05:00:00 9.8 7 Nordeste 11 Nordeste 0 -- -- 73
2019-11-20 04:00:00 10.1 6 Nordeste 12 Nordeste 0 -- -- 73
2019-11-20 03:00:00 10.9 6 Nordeste 14 Nordeste 0 -- -- 69
2019-11-20 02:00:00 11.5 5 Norte 18 Nordeste 0 -- -- 65
2019-11-20 01:00:00 11.5 9 Nordeste 18 Nordeste 0 -- -- 64
2019-11-20 00:00:00 11.3 6 Nordeste 13 Nordeste 0 -- -- 68
2019-11-19 23:00:00 11.3 8 Nordeste 14 Nordeste 0 -- -- 71
2019-11-19 22:00:00 10.6 5 Norte 12 Nordeste 0 -- -- 78
2019-11-19 21:00:00 9.6 8 Nordeste 12 Norte 0 -- -- 82
2019-11-19 20:00:00 10.3 4 Norte 8 Norte 0 -- -- 85
2019-11-19 19:00:00 12.9 4 Norte 14 Oeste 0 -- -- 75
2019-11-19 18:00:00 14.3 9 Oeste 19 Oeste 0 -- -- 68
2019-11-19 17:00:00 16 9 Sudoeste 17 Sudoeste 0 -- -- 48
2019-11-19 16:00:00 16.1 6 Sudoeste 17 Sudoeste 0 -- -- 46
2019-11-19 15:00:00 16.7 11 Sudoeste 19 Sudoeste 0 -- -- 43
2019-11-19 14:00:00 17 9 Oeste 16 Sudoeste 0 -- -- 43
2019-11-19 13:00:00 16.7 9 Sudoeste 21 Sudoeste 0 -- -- 46
2019-11-19 12:00:00 17.1 8 Oeste 17 Oeste 0 -- -- 44
2019-11-19 11:00:00 16.7 10 Nordeste 21 Nordeste 0 -- -- 37
2019-11-19 10:00:00 13.3 13 Nordeste 24 Nordeste 0 -- -- 44
2019-11-19 09:00:00 11 16 Nordeste 25 Nordeste 0 -- -- 49
2019-11-19 08:00:00 10.2 15 Nordeste 30 Nordeste 0 -- -- 51
2019-11-19 07:00:00 10.7 17 Nordeste 26 Este 0 -- -- 49
2019-11-19 06:00:00 10.6 14 Nordeste 29 Nordeste 0 -- -- 50
2019-11-19 05:00:00 11.4 22 Nordeste 32 Nordeste 0 -- -- 46
2019-11-19 04:00:00 11.3 12 Este 28 Este 0 -- -- 47
2019-11-19 03:00:00 11.7 19 Nordeste 31 Nordeste 0 -- -- 45
2019-11-19 02:00:00 11.9 17 Nordeste 30 Este 0 -- -- 43
2019-11-19 01:00:00 11.8 13 Nordeste 23 Este 0 -- -- 44
2019-11-19 00:00:00 12.4 14 Nordeste 24 Este 0 -- -- 41
2019-11-18 23:00:00 13.2 14 Nordeste 23 Nordeste 0 -- -- 37
2019-11-18 22:00:00 13.2 12 Este 22 Este 0 -- -- 38
2019-11-18 21:00:00 13.2 9 Nordeste 18 Nordeste 0 -- -- 38
2019-11-18 20:00:00 14.4 7 Norte 29 Nordeste 0 -- -- 36
2019-11-18 19:00:00 15.3 10 Norte 29 Norte 0 -- -- 33
2019-11-18 18:00:00 16.5 15 Norte 32 Norte 0 -- -- 32
2019-11-18 17:00:00 18.3 12 Norte 33 Norte 0 -- -- 30
2019-11-18 16:00:00 19.2 17 Nordeste 36 Nordeste 0 -- -- 30
2019-11-18 15:00:00 19.8 10 Sur 28 Nordeste 0 -- -- 41
2019-11-18 14:00:00 20.8 15 Norte 42 Norte 0 -- -- 26
2019-11-18 13:00:00 19.5 26 Norte 46 Norte 0 -- -- 29
2019-11-18 12:00:00 18.9 17 Norte 41 Norte 0 -- -- 42
2019-11-18 11:00:00 17.4 21 Norte 48 Noroeste 0 -- -- 46
2019-11-18 10:00:00 15.9 14 Noroeste 27 Oeste 0 -- -- 52
2019-11-18 09:00:00 13.9 5 Norte 26 Norte 0.2 -- -- 65
2019-11-18 08:00:00 11.3 10 Norte 15 Norte 0 -- -- 88
2019-11-18 07:00:00 12.3 3 Oeste 9 Norte 0 -- -- 93
2019-11-18 06:00:00 13.3 4 Norte 13 Oeste 0 -- -- 92
2019-11-18 05:00:00 13.6 3 Sur 10 Nordeste 0 -- -- 92
2019-11-18 04:00:00 14.3 2 Nordeste 24 Oeste 0 -- -- 87
2019-11-18 03:00:00 15 15 Oeste 43 Oeste 0 -- -- 86
2019-11-18 02:00:00 15.1 16 Oeste 32 Oeste 0 -- -- 83
2019-11-18 01:00:00 14.5 8 Oeste 27 Oeste 0 -- -- 86
2019-11-18 00:00:00 14.7 13 Oeste 28 Oeste 0 -- -- 88
2019-11-17 23:00:00 14.8 17 Oeste 31 Oeste 0 -- -- 86
2019-11-17 22:00:00 14.8 13 Oeste 37 Oeste 0 -- -- 84
2019-11-17 21:00:00 14.1 6 Oeste 28 Oeste 0 -- -- 84
2019-11-17 20:00:00 14.8 15 Oeste 35 Oeste 0 -- -- 82
2019-11-17 19:00:00 14.9 12 Oeste 32 Noroeste 0 -- -- 76
2019-11-17 18:00:00 15.4 15 Oeste 33 Oeste 0 -- -- 71
2019-11-17 17:00:00 16 16 Oeste 35 Oeste 0 -- -- 58
2019-11-17 16:00:00 16 15 Oeste 33 Oeste 0 -- -- 52
2019-11-17 15:00:00 16.2 19 Oeste 41 Noroeste 0 -- -- 44
2019-11-17 14:00:00 16.3 22 Oeste 46 Oeste 0 -- -- 48
2019-11-17 13:00:00 16.5 18 Oeste 42 Sudoeste 0 -- -- 49
2019-11-17 12:00:00 16.5 15 Oeste 32 Oeste 0 -- -- 37
2019-11-17 11:00:00 15.8 12 Sudoeste 24 Oeste 0 -- -- 34
2019-11-17 10:00:00 16.1 9 Noroeste 23 Norte 0 -- -- 33
2019-11-17 09:00:00 13.9 8 Norte 23 Norte 0 -- -- 33
2019-11-17 08:00:00 10.5 10 Norte 22 Nordeste 0 -- -- 43
2019-11-17 07:00:00 10.8 12 Norte 25 Nordeste 0 -- -- 41
2019-11-17 06:00:00 10.4 12 Norte 30 Nordeste 0 -- -- 44
2019-11-17 05:00:00 12 15 Norte 32 Norte 0 -- -- 37
2019-11-17 04:00:00 11.5 13 Norte 27 Norte 0 -- -- 38
2019-11-17 03:00:00 7.4 6 Norte 16 Nordeste 0 -- -- 61
2019-11-17 02:00:00 7.3 3 Noroeste 13 Nordeste 0 -- -- 60
2019-11-17 01:00:00 8.6 3 Nordeste 22 Noroeste 0 -- -- 54
2019-11-17 00:00:00 12.3 9 Norte 36 Noroeste 0 -- -- 34
2019-11-16 23:00:00 13.2 11 Norte 35 Noroeste 0 -- -- 32
2019-11-16 22:00:00 13.7 15 Norte 41 Norte 0 -- -- 30
2019-11-16 21:00:00 14.1 19 Norte 46 Noroeste 0 -- -- 29
2019-11-16 20:00:00 14.6 27 Norte 49 Norte 0 -- -- 27
2019-11-16 19:00:00 14.8 16 Noroeste 30 Oeste 0 -- -- 26
2019-11-16 18:00:00 15.5 10 Oeste 36 Noroeste 0 -- -- 27
2019-11-16 17:00:00 17.2 8 Norte 33 Oeste 0 -- -- 23
2019-11-16 16:00:00 16.5 21 Oeste 42 Oeste 0 -- -- 38
2019-11-16 15:00:00 16.3 18 Oeste 41 Oeste 0 -- -- 32
2019-11-16 14:00:00 16 14 Sudoeste 27 Sudoeste 0 -- -- 43
2019-11-16 13:00:00 15.9 15 Oeste 35 Noroeste 0 -- -- 40
2019-11-16 12:00:00 16.6 14 Oeste 24 Oeste 0 -- -- 33
2019-11-16 11:00:00 16.2 7 Nordeste 30 Norte 0 -- -- 28
2019-11-16 10:00:00 14.2 18 Norte 33 Norte 0 -- -- 30
2019-11-16 09:00:00 10.8 13 Nordeste 21 Nordeste 0 -- -- 44
2019-11-16 08:00:00 9.6 13 Norte 31 Nordeste 0 -- -- 44
2019-11-16 07:00:00 9.4 19 Nordeste 28 Nordeste 0 -- -- 48
2019-11-16 06:00:00 9.2 10 Nordeste 16 Nordeste 0 -- -- 48
2019-11-16 05:00:00 9.6 2 Sur 14 Noroeste 0 -- -- 47
2019-11-16 04:00:00 10.7 3 Noroeste 27 Noroeste 0 -- -- 43
2019-11-16 03:00:00 11 11 Norte 24 Noroeste 0 -- -- 44
2019-11-16 02:00:00 10.2 10 Noroeste 19 Oeste 0 -- -- 46
2019-11-16 01:00:00 10 5 Norte 30 Norte 0 -- -- 47
2019-11-16 00:00:00 11.5 14 Norte 39 Norte 0 -- -- 40
2019-11-15 23:00:00 11.2 15 Norte 42 Este 0 -- -- 40
2019-11-15 22:00:00 11.2 14 Norte 51 Norte 0 -- -- 40
2019-11-15 21:00:00 11.5 27 Norte 61 Norte 0 -- -- 40
2019-11-15 20:00:00 11.7 21 Norte 43 Norte 0 -- -- 37
2019-11-15 19:00:00 11.8 17 Norte 37 Noroeste 0 -- -- 36
2019-11-15 18:00:00 12.2 13 Noroeste 32 Norte 0 -- -- 33
2019-11-15 17:00:00 14.2 18 Norte 32 Norte 0 -- -- 29
2019-11-15 16:00:00 14.3 18 Noroeste 31 Noroeste 0 -- -- 31
2019-11-15 15:00:00 15.9 15 Noroeste 32 Noroeste 0 -- -- 28
2019-11-15 14:00:00 16.2 14 Oeste 35 Norte 0 -- -- 35
2019-11-15 13:00:00 16.2 12 Oeste 30 Noroeste 0 -- -- 33
2019-11-15 12:00:00 15.5 11 Noroeste 22 Noroeste 0 -- -- 30
2019-11-15 11:00:00 13.7 15 Norte 30 Norte 0 -- -- 43
2019-11-15 10:00:00 13.8 12 Norte 27 Norte 0 -- -- 44
2019-11-15 09:00:00 11.8 4 Norte 28 Noroeste 0 -- -- 48
2019-11-15 08:00:00 11 13 Noroeste 30 Noroeste 0 -- -- 50
2019-11-15 07:00:00 10.9 11 Noroeste 30 Norte 0 -- -- 50
2019-11-15 06:00:00 10.6 8 Norte 22 Norte 0 -- -- 53
2019-11-15 05:00:00 11.9 14 Norte 33 Norte 0 -- -- 49
2019-11-15 04:00:00 12.4 13 Norte 35 Norte 0 -- -- 50
2019-11-15 03:00:00 13 15 Norte 43 Norte 0 -- -- 47
2019-11-15 02:00:00 12.6 13 Norte 38 Noroeste 0 -- -- 51
2019-11-15 01:00:00 13.5 16 Norte 38 Oeste 0 -- -- 48
2019-11-15 00:00:00 12.9 6 Noroeste 22 Norte 0 -- -- 50
2019-11-14 23:00:00 13.8 6 Noroeste 31 Noroeste 0 -- -- 48
2019-11-14 22:00:00 14.3 15 Noroeste 36 Oeste 0 -- -- 47
2019-11-14 21:00:00 14.6 22 Noroeste 45 Noroeste 0 -- -- 43
2019-11-14 20:00:00 14.5 19 Noroeste 41 Noroeste 0 -- -- 43
2019-11-14 19:00:00 14.7 19 Noroeste 45 Noroeste 0 -- -- 43
2019-11-14 18:00:00 15.2 20 Noroeste 49 Norte 0 -- -- 46
2019-11-14 17:00:00 15.6 21 Norte 46 Norte 0 -- -- 46
2019-11-14 16:00:00 15.9 23 Noroeste 53 Norte 0 -- -- 52
2019-11-14 15:00:00 15.1 15 Oeste 53 Oeste 0 -- -- 81
2019-11-14 14:00:00 16.1 21 Sudoeste 48 Sudoeste 0 -- -- 70
2019-11-14 13:00:00 16.3 27 Oeste 50 Sudoeste 0 -- -- 66
2019-11-14 12:00:00 17.2 26 Oeste 49 Oeste 0 -- -- 62
2019-11-14 11:00:00 18.2 10 Noroeste 36 Norte 0 -- -- 49
2019-11-14 10:00:00 17.4 19 Norte 41 Norte 0 -- -- 48
2019-11-14 09:00:00 15.2 9 Noroeste 20 Norte 0 -- -- 61
2019-11-14 08:00:00 9.6 8 Noroeste 12 Oeste 0 -- -- 94
2019-11-14 07:00:00 9.2 0 Calma 6 Norte 0 -- -- 88
2019-11-14 06:00:00 11.4 0 Calma 15 Oeste 0 -- -- 80
2019-11-14 05:00:00 13.9 2 Sudoeste 17 Norte 0 -- -- 66
2019-11-14 04:00:00 14.8 4 Norte 18 Norte 0 -- -- 63
2019-11-14 03:00:00 17.1 7 Noroeste 23 Noroeste 0 -- -- 57
2019-11-14 02:00:00 18 13 Noroeste 32 Noroeste 0 -- -- 47
2019-11-14 01:00:00 17.9 14 Noroeste 29 Noroeste 0 -- -- 51
2019-11-14 00:00:00 17 8 Oeste 16 Noroeste 0 -- -- 58
2019-11-13 23:00:00 18.1 7 Norte 18 Oeste 0 -- -- 51
2019-11-13 22:00:00 18.2 6 Oeste 24 Norte 0 -- -- 48
2019-11-13 21:00:00 18.8 15 Norte 27 Noroeste 0 -- -- 46
2019-11-13 20:00:00 19.8 19 Norte 51 Noroeste 0 -- -- 41
2019-11-13 19:00:00 19.6 21 Norte 39 Norte 0 -- -- 42
2019-11-13 18:00:00 19.3 10 Norte 23 Noroeste 0 -- -- 45
2019-11-13 17:00:00 21.8 12 Norte 32 Norte 0 -- -- 37
2019-11-13 16:00:00 22.1 15 Noroeste 33 Oeste 0 -- -- 41
2019-11-13 15:00:00 19.5 18 Oeste 37 Oeste 0 -- -- 60
2019-11-13 14:00:00 20 15 Oeste 36 Oeste 0 -- -- 55
2019-11-13 13:00:00 18.3 19 Oeste 36 Oeste 0 -- -- 63
2019-11-13 12:00:00 18.9 10 Oeste 29 Sudoeste 0 -- -- 56
2019-11-13 11:00:00 19.5 13 Oeste 29 Oeste 0 -- -- 53
2019-11-13 10:00:00 19.3 5 Oeste 36 Noroeste 0 -- -- 49
2019-11-13 09:00:00 18.6 12 Noroeste 39 Noroeste 0 -- -- 46
2019-11-13 08:00:00 17.5 18 Noroeste 48 Norte 0 -- -- 46
2019-11-13 07:00:00 17.1 27 Norte 52 Noroeste 0 -- -- 48
2019-11-13 06:00:00 16.9 6 Sur 36 Nordeste 0 -- -- 47
2019-11-13 05:00:00 16.6 24 Norte 51 Norte 0 -- -- 49
2019-11-13 04:00:00 16.5 20 Norte 38 Norte 0 -- -- 47
2019-11-13 03:00:00 16.1 14 Norte 33 Norte 0 -- -- 43
2019-11-13 02:00:00 16.3 14 Norte 30 Norte 0 -- -- 40
2019-11-13 01:00:00 16.9 16 Norte 33 Noroeste 0 -- -- 36
2019-11-13 00:00:00 16.6 12 Nordeste 28 Norte 0 -- -- 39
2019-11-12 23:00:00 17.5 16 Norte 50 Norte 0 -- -- 36
2019-11-12 22:00:00 17.6 25 Norte 50 Norte 0 -- -- 36
2019-11-12 21:00:00 17.5 16 Norte 45 Norte 0 -- -- 37
2019-11-12 20:00:00 18.2 21 Norte 48 Norte 0 -- -- 29
2019-11-12 19:00:00 18.8 17 Norte 38 Norte 0 -- -- 26
2019-11-12 18:00:00 19.5 9 Norte 28 Noroeste 0 -- -- 26
2019-11-12 17:00:00 21.8 8 Norte 30 Noroeste 0 -- -- 21
2019-11-12 16:00:00 21.3 6 Sur 22 Sudoeste 0 -- -- 38
2019-11-12 15:00:00 21 9 Sur 19 Sur 0 -- -- 38
2019-11-12 14:00:00 21.2 6 Sudeste 18 Sudoeste 0 -- -- 29
2019-11-12 13:00:00 20.7 8 Sudoeste 16 Sur 0 -- -- 36
2019-11-12 12:00:00 20.8 7 Sudoeste 18 Oeste 0 -- -- 29
2019-11-12 11:00:00 20.9 3 Sudeste 9 Este 0 -- -- 28
2019-11-12 10:00:00 18.2 6 Nordeste 25 Nordeste 0 -- -- 40
2019-11-12 09:00:00 15.3 14 Nordeste 31 Este 0 -- -- 47
2019-11-12 08:00:00 14.1 13 Este 35 Este 0 -- -- 48
2019-11-12 07:00:00 13.8 4 Sudeste 25 Sudoeste 0 -- -- 50
2019-11-12 06:00:00 14.9 5 Nordeste 39 Nordeste 0 -- -- 46
2019-11-12 05:00:00 15.2 17 Nordeste 39 Nordeste 0 -- -- 46
2019-11-12 04:00:00 14.9 19 Nordeste 32 Nordeste 0 -- -- 50
2019-11-12 03:00:00 14.7 18 Nordeste 33 Nordeste 0 -- -- 55
2019-11-12 02:00:00 14.9 8 Nordeste 32 Nordeste 0 -- -- 54
2019-11-12 01:00:00 15.7 17 Nordeste 29 Nordeste 0 -- -- 52
2019-11-12 00:00:00 16.1 7 Este 33 Este 0 -- -- 51
2019-11-11 23:00:00 16.3 13 Nordeste 24 Nordeste 0 -- -- 50
2019-11-11 22:00:00 17.8 4 Noroeste 37 Nordeste 0 -- -- 44
2019-11-11 21:00:00 17.8 9 Nordeste 46 Nordeste 0 -- -- 44
2019-11-11 20:00:00 18.2 25 Norte 56 Norte 0 -- -- 43
2019-11-11 19:00:00 18.7 27 Norte 57 Norte 0 -- -- 40
2019-11-11 18:00:00 17.7 15 Noroeste 34 Noroeste 0 -- -- 43
2019-11-11 17:00:00 18.1 19 Noroeste 37 Noroeste 0 -- -- 40
2019-11-11 16:00:00 19 19 Noroeste 43 Norte 0 -- -- 32
2019-11-11 15:00:00 20.2 22 Norte 43 Noroeste 0 -- -- 24
2019-11-11 14:00:00 20.6 23 Norte 54 Nordeste 0 -- -- 24
2019-11-11 13:00:00 19.8 22 Norte 45 Norte 0 -- -- 23
2019-11-11 12:00:00 18 4 Sur 13 Este 0 -- -- 29
2019-11-11 11:00:00 15.8 7 Sur 15 Este 0 -- -- 39
2019-11-11 10:00:00 14.8 4 Sudoeste 16 Este 0 -- -- 35
2019-11-11 09:00:00 13.5 5 Nordeste 20 Norte 0 -- -- 40
2019-11-11 08:00:00 11.7 4 Nordeste 12 Norte 0 -- -- 46
2019-11-11 07:00:00 12.2 7 Nordeste 38 Noroeste 0 -- -- 43
2019-11-11 06:00:00 13.5 16 Norte 37 Norte 0 -- -- 36
2019-11-11 05:00:00 14 18 Norte 32 Norte 0 -- -- 39
2019-11-11 04:00:00 14.4 18 Norte 36 Norte 0 -- -- 35
2019-11-11 03:00:00 14.4 19 Noroeste 39 Noroeste 0 -- -- 37
2019-11-11 02:00:00 14.3 18 Norte 49 Norte 0 -- -- 39
2019-11-11 01:00:00 13.5 10 Norte 19 Norte 0 -- -- 43
2019-11-11 00:00:00 13.9 11 Noroeste 27 Norte 0 -- -- 42